createdAt,value
2019-01-11T00:01:58.712Z,-3.00
2019-01-11T00:04:28.813Z,-3.00
2019-01-11T00:06:58.955Z,-3.00
2019-01-11T00:09:29.047Z,-3.00
2019-01-11T00:12:05.240Z,-3.00
2019-01-11T00:14:35.454Z,-3.00
2019-01-11T00:17:05.632Z,-3.00
2019-01-11T00:19:35.823Z,-3.00
2019-01-11T00:22:07.323Z,-3.00
2019-01-11T00:24:38.371Z,-3.00
2019-01-11T00:27:08.479Z,-3.00
2019-01-11T00:29:38.559Z,-3.00
2019-01-11T00:32:11.829Z,-3.00
2019-01-11T00:34:42.834Z,-3.00
2019-01-11T00:37:14.083Z,-3.10
2019-01-11T00:39:44.196Z,-3.10
2019-01-11T00:42:15.219Z,-3.10
2019-01-11T00:44:45.311Z,-3.10
2019-01-11T00:47:16.939Z,-3.10
2019-01-11T00:49:47.943Z,-3.10
2019-01-11T00:52:18.043Z,-3.10
2019-01-11T00:54:48.203Z,-3.10
2019-01-11T00:57:18.293Z,-3.10
2019-01-11T00:59:49.387Z,-3.10
2019-01-11T01:02:21.529Z,-3.10
2019-01-11T01:04:51.623Z,-3.00
2019-01-11T01:07:21.705Z,-3.10
2019-01-11T01:09:53.719Z,-3.10
2019-01-11T01:12:28.135Z,-3.10
2019-01-11T01:14:58.259Z,-3.00
2019-01-11T01:17:29.283Z,-3.00
2019-01-11T01:19:59.391Z,-3.00
2019-01-11T01:22:29.488Z,-3.00
2019-01-11T01:24:59.598Z,-3.10
2019-01-11T01:27:29.933Z,-3.10
2019-01-11T01:30:01.915Z,-3.10
2019-01-11T01:32:32.000Z,-3.00
2019-01-11T01:35:05.052Z,-3.00
2019-01-11T01:37:36.055Z,-3.10
2019-01-11T01:40:13.473Z,-3.00
2019-01-11T01:42:44.551Z,-3.10
2019-01-11T01:45:18.228Z,-3.10
2019-01-11T01:47:48.309Z,-3.10
2019-01-11T01:50:19.345Z,-3.10
2019-01-11T01:52:49.460Z,-3.10
2019-01-11T01:55:22.575Z,-3.10
2019-01-11T01:57:53.693Z,-3.10
2019-01-11T02:00:23.791Z,-3.10
2019-01-11T02:02:53.863Z,-3.10
2019-01-11T02:05:24.092Z,-3.00
2019-01-11T02:07:55.157Z,-3.00
2019-01-11T02:10:25.331Z,-3.10
2019-01-11T02:12:58.310Z,-3.10
2019-01-11T02:15:28.409Z,-3.10
2019-01-11T02:17:58.519Z,-3.10
2019-01-11T02:20:30.527Z,-3.10
2019-01-11T02:23:07.388Z,-3.10
2019-01-11T02:25:37.471Z,-3.10
2019-01-11T02:28:09.443Z,-3.10
2019-01-11T02:30:39.541Z,-3.10
2019-01-11T02:33:11.543Z,-3.20
2019-01-11T02:35:49.758Z,-3.10
2019-01-11T02:38:25.611Z,-3.20
2019-01-11T02:40:55.695Z,-3.20
2019-01-11T02:43:25.791Z,-3.20
2019-01-11T02:45:56.800Z,-3.20
2019-01-11T02:48:26.919Z,-3.20
2019-01-11T02:50:57.985Z,-3.10
2019-01-11T02:53:28.131Z,-3.10
2019-01-11T02:55:58.251Z,-3.10
2019-01-11T02:58:29.343Z,-3.20
2019-01-11T03:00:59.461Z,-3.20
2019-01-11T03:03:29.565Z,-3.20
2019-01-11T03:05:59.739Z,-3.20
2019-01-11T03:08:29.825Z,-3.10
2019-01-11T03:11:01.867Z,-3.10
2019-01-11T03:13:31.979Z,-3.00
2019-01-11T03:16:02.056Z,-3.00
2019-01-11T03:18:33.132Z,-3.00
2019-01-11T03:21:03.253Z,-3.00
2019-01-11T03:23:33.351Z,-3.00
2019-01-11T03:26:03.431Z,-3.00
2019-01-11T03:28:34.123Z,-3.00
2019-01-11T03:31:05.863Z,-3.00
2019-01-11T03:33:35.988Z,-3.00
2019-01-11T03:36:08.115Z,-3.00
2019-01-11T03:38:38.291Z,-3.00
2019-01-11T03:41:10.361Z,-3.00
2019-01-11T03:43:41.403Z,-3.00
2019-01-11T03:46:11.493Z,-3.00
2019-01-11T03:48:41.582Z,-3.00
2019-01-11T03:51:16.141Z,-3.00
2019-01-11T03:53:46.241Z,-3.00
2019-01-11T03:56:16.313Z,-3.10
2019-01-11T03:58:50.507Z,-3.10
2019-01-11T04:01:20.636Z,-3.20
2019-01-11T04:03:50.786Z,-3.20
2019-01-11T04:06:22.797Z,-3.10
2019-01-11T04:08:52.905Z,-3.10
2019-01-11T04:11:23.961Z,-3.20
2019-01-11T04:13:54.043Z,-3.10
2019-01-11T04:16:24.155Z,-3.20
2019-01-11T04:18:55.883Z,-3.20
2019-01-11T04:21:29.219Z,-3.20
2019-01-11T04:24:01.187Z,-3.20
2019-01-11T04:26:31.272Z,-3.10
2019-01-11T04:29:01.444Z,-3.20
2019-01-11T04:31:32.514Z,-3.10
2019-01-11T04:34:03.601Z,-3.10
2019-01-11T04:36:33.675Z,-3.20
2019-01-11T04:39:05.312Z,-3.20
2019-01-11T04:41:43.197Z,-3.20
2019-01-11T04:44:13.324Z,-3.20
2019-01-11T04:46:45.281Z,-3.20
2019-01-11T04:49:16.351Z,-3.10
2019-01-11T04:51:48.389Z,-3.10
2019-01-11T04:54:18.547Z,-3.10
2019-01-11T04:56:55.304Z,-3.10
2019-01-11T04:59:26.315Z,-3.10
2019-01-11T05:01:57.941Z,-3.10
2019-01-11T05:04:28.032Z,-3.10
2019-01-11T05:06:59.080Z,-3.20
2019-01-11T05:09:35.289Z,-3.20
2019-01-11T05:12:06.356Z,-3.20
2019-01-11T05:14:37.377Z,-3.20
2019-01-11T05:17:07.467Z,-3.20
2019-01-11T05:19:37.541Z,-3.20
2019-01-11T05:22:08.623Z,-3.20
2019-01-11T05:24:38.714Z,-3.20
2019-01-11T05:27:09.631Z,-3.20
2019-01-11T05:29:39.979Z,-3.20
2019-01-11T05:32:11.999Z,-3.20
2019-01-11T05:34:47.985Z,-3.20
2019-01-11T05:37:19.051Z,-3.20
2019-01-11T05:39:50.139Z,-3.20
2019-01-11T05:42:23.324Z,-3.20
2019-01-11T05:44:57.947Z,-3.20
2019-01-11T05:47:28.083Z,-3.20
2019-01-11T05:49:58.173Z,-3.20
2019-01-11T05:52:28.271Z,-3.20
2019-01-11T05:54:58.357Z,-3.20
2019-01-11T05:57:29.352Z,-3.20
2019-01-11T06:00:01.444Z,-3.20
2019-01-11T06:02:31.540Z,-3.10
2019-01-11T06:05:06.296Z,-3.10
2019-01-11T06:07:53.596Z,-3.10
2019-01-11T06:10:23.704Z,-3.10
2019-01-11T06:12:56.459Z,-3.10
2019-01-11T06:15:28.556Z,-3.10
2019-01-11T06:17:58.648Z,-3.10
2019-01-11T06:20:30.371Z,-3.10
2019-01-11T06:23:01.579Z,-3.10
2019-01-11T06:25:31.695Z,-3.10
2019-01-11T06:28:01.803Z,-3.10
2019-01-11T06:30:37.825Z,-3.10
2019-01-11T06:33:08.160Z,-3.10
2019-01-11T06:35:45.163Z,-3.10
2019-01-11T06:38:16.240Z,-3.10
2019-01-11T06:40:46.409Z,-3.10
2019-01-11T06:43:16.555Z,-3.10
2019-01-11T06:45:46.712Z,-3.10
2019-01-11T06:48:19.004Z,-3.10
2019-01-11T06:50:51.013Z,-3.10
2019-01-11T06:53:21.085Z,-3.10
2019-01-11T06:55:51.236Z,-3.10
2019-01-11T06:58:22.168Z,-3.10
2019-01-11T07:00:56.292Z,-3.10
2019-01-11T07:03:26.495Z,-3.10
2019-01-11T07:05:56.683Z,-3.10
2019-01-11T07:08:28.696Z,-3.10
2019-01-11T07:11:05.846Z,-3.00
2019-01-11T07:13:41.941Z,-3.00
2019-01-11T07:16:14.036Z,-2.90
2019-01-11T07:18:50.988Z,-2.90
2019-01-11T07:21:27.187Z,-2.90
2019-01-11T07:23:57.595Z,-2.80
2019-01-11T07:26:27.756Z,-2.80
2019-01-11T07:29:07.908Z,-2.80
2019-01-11T07:31:39.965Z,-2.80
2019-01-11T07:34:12.008Z,-2.80
2019-01-11T07:36:42.603Z,-2.80
2019-01-11T07:39:14.335Z,-2.80
2019-01-11T07:41:44.420Z,-2.80
2019-01-11T07:44:15.549Z,-2.70
2019-01-11T07:47:00.460Z,-2.70
2019-01-11T07:49:39.312Z,-2.60
2019-01-11T07:52:09.435Z,-2.60
2019-01-11T07:54:41.495Z,-2.40
2019-01-11T07:57:14.121Z,-2.30
2019-01-11T07:59:46.144Z,-2.20
2019-01-11T08:02:16.255Z,-2.20
2019-01-11T08:04:46.368Z,-2.20
2019-01-11T08:07:16.785Z,-2.10
2019-01-11T08:09:55.828Z,-2.10
2019-01-11T08:12:25.976Z,-2.00
2019-01-11T08:14:56.060Z,-2.00
2019-01-11T08:17:26.200Z,-2.00
2019-01-11T08:19:56.296Z,-2.00
2019-01-11T08:22:31.052Z,-1.90
2019-01-11T08:25:02.820Z,-1.80
2019-01-11T08:27:38.988Z,-1.70
2019-01-11T08:30:13.543Z,-1.70
2019-01-11T08:32:43.628Z,-1.80
2019-01-11T08:35:53.220Z,-1.70
2019-01-11T08:38:24.255Z,-1.60
2019-01-11T08:40:55.314Z,-1.50
2019-01-11T08:43:25.409Z,-1.50
2019-01-11T08:45:55.506Z,-1.40
2019-01-11T08:48:28.655Z,-1.40
2019-01-11T08:51:02.643Z,-1.40
2019-01-11T08:53:32.464Z,-1.40
2019-01-11T08:56:08.318Z,-1.30
2019-01-11T08:58:36.328Z,-1.30
2019-01-11T09:01:13.085Z,-1.20
2019-01-11T09:03:43.187Z,-1.30
2019-01-11T09:06:15.264Z,-1.20
2019-01-11T09:08:47.318Z,-1.10
2019-01-11T09:11:17.416Z,-1.00
2019-01-11T09:13:48.443Z,-1.00
2019-01-11T09:16:23.644Z,-0.80
2019-01-11T09:18:54.695Z,-0.80
2019-01-11T09:21:24.786Z,-0.80
2019-01-11T09:23:54.872Z,-1.00
2019-01-11T09:26:31.044Z,-1.10
2019-01-11T09:29:02.041Z,-1.10
2019-01-11T09:31:40.038Z,-1.20
2019-01-11T09:34:11.021Z,-1.30
2019-01-11T09:36:41.116Z,-1.40
2019-01-11T09:39:25.456Z,-1.40
2019-01-11T09:41:56.433Z,-1.40
2019-01-11T09:44:29.520Z,-1.30
2019-01-11T09:47:00.552Z,-1.30
2019-01-11T09:49:30.712Z,-1.30
2019-01-11T09:52:00.860Z,-1.20
2019-01-11T09:54:31.864Z,-1.30
2019-01-11T09:57:02.870Z,-1.30
2019-01-11T09:59:35.182Z,-1.30
2019-01-11T10:02:06.764Z,-1.20
2019-01-11T10:04:39.484Z,-1.00
2019-01-11T10:07:18.132Z,-0.80
2019-01-11T10:09:48.215Z,-0.60
2019-01-11T10:12:38.116Z,-0.70
2019-01-11T10:15:13.045Z,-0.70
2019-01-11T10:17:43.316Z,-0.60
2019-01-11T10:20:15.301Z,-0.60
2019-01-11T10:22:56.288Z,-0.60
2019-01-11T10:25:26.472Z,-0.70
2019-01-11T10:27:56.552Z,-0.70
2019-01-11T10:30:26.636Z,-0.70
2019-01-11T10:32:56.808Z,-0.60
2019-01-11T10:35:29.942Z,-0.50
2019-01-11T10:38:00.944Z,-0.30
2019-01-11T10:40:32.944Z,-0.20
2019-01-11T10:43:03.043Z,-0.30
2019-01-11T10:45:36.820Z,-0.30
2019-01-11T10:48:12.837Z,-0.40
2019-01-11T10:50:49.008Z,-0.50
2019-01-11T10:53:22.609Z,-0.70
2019-01-11T10:55:59.468Z,-0.70
2019-01-11T10:58:30.472Z,-0.70
2019-01-11T11:01:04.528Z,-0.70
2019-01-11T11:03:37.632Z,-0.80
2019-01-11T11:06:14.898Z,-0.80
2019-01-11T11:08:47.020Z,-0.80
2019-01-11T11:11:41.420Z,-0.70
2019-01-11T11:14:16.688Z,-0.70
2019-01-11T11:16:46.832Z,-0.70
2019-01-11T11:19:16.960Z,-0.70
2019-01-11T11:21:48.379Z,-0.60
2019-01-11T11:24:24.372Z,-0.60
2019-01-11T11:26:56.500Z,-0.50
2019-01-11T11:29:27.576Z,-0.40
2019-01-11T11:31:58.818Z,-0.40
2019-01-11T11:34:36.376Z,-0.50
2019-01-11T11:37:07.744Z,-0.40
2019-01-11T11:39:38.933Z,-0.40
2019-01-11T11:42:09.428Z,-0.50
2019-01-11T11:44:42.500Z,-0.60
2019-01-11T11:47:15.720Z,-0.60
2019-01-11T11:49:51.840Z,-0.50
2019-01-11T11:52:22.860Z,-0.50
2019-01-11T11:54:54.068Z,-0.50
2019-01-11T11:57:25.076Z,-0.50
2019-01-11T11:59:55.164Z,-0.40
2019-01-11T12:02:26.232Z,-0.40
2019-01-11T12:04:56.352Z,-0.40
2019-01-11T12:07:28.408Z,-0.40
2019-01-11T12:10:06.668Z,-0.50
2019-01-11T12:12:44.806Z,-0.40
2019-01-11T12:15:16.326Z,-0.50
2019-01-11T12:17:53.364Z,-0.40
2019-01-11T12:20:27.869Z,-0.40
2019-01-11T12:22:58.156Z,-0.50
2019-01-11T12:25:34.952Z,-0.60
2019-01-11T12:28:08.137Z,-0.60
2019-01-11T12:30:39.212Z,-0.70
2019-01-11T12:33:11.260Z,-0.60
2019-01-11T12:35:43.428Z,-0.40
2019-01-11T12:38:15.520Z,-0.40
2019-01-11T12:40:45.704Z,-0.40
2019-01-11T12:43:15.865Z,-0.30
2019-01-11T12:45:55.112Z,-0.30
2019-01-11T12:48:25.356Z,-0.20
2019-01-11T12:50:57.363Z,-0.20
2019-01-11T12:53:27.504Z,-0.20
2019-01-11T12:55:59.632Z,0.00
2019-01-11T12:58:30.668Z,0.10
2019-01-11T13:01:01.037Z,0.10
2019-01-11T13:03:37.220Z,0.00
2019-01-11T13:06:08.361Z,-0.10
2019-01-11T13:08:42.672Z,-0.20
2019-01-11T13:11:13.996Z,-0.30
2019-01-11T13:13:44.170Z,-0.40
2019-01-11T13:16:16.888Z,-0.50
2019-01-11T13:18:47.168Z,-0.60
2019-01-11T13:21:25.066Z,-0.70
2019-01-11T13:24:01.104Z,-0.80
2019-01-11T13:26:38.997Z,-0.80
2019-01-11T13:29:17.017Z,-0.90
2019-01-11T13:31:47.180Z,-0.90
2019-01-11T13:34:25.205Z,-0.90
2019-01-11T13:36:56.340Z,-0.80
2019-01-11T13:39:34.709Z,-0.90
2019-01-11T13:42:11.928Z,-0.90
2019-01-11T13:44:50.542Z,-1.00
2019-01-11T13:47:24.777Z,-1.00
2019-01-11T13:49:54.974Z,-1.00
2019-01-11T13:52:32.172Z,-1.00
2019-01-11T13:55:10.176Z,-1.00
2019-01-11T13:57:41.353Z,-1.10
2019-01-11T14:00:15.505Z,-1.10
2019-01-11T14:02:52.464Z,-1.10
2019-01-11T14:05:22.695Z,-1.10
2019-01-11T14:07:52.804Z,-1.20
2019-01-11T14:10:23.894Z,-1.20
2019-01-11T14:12:54.142Z,-1.20
2019-01-11T14:15:25.301Z,-1.20
2019-01-11T14:17:55.469Z,-1.20
2019-01-11T14:20:25.689Z,-1.20
2019-01-11T14:22:55.882Z,-1.20
2019-01-11T14:25:27.009Z,-1.20
2019-01-11T14:28:05.261Z,-1.20
2019-01-11T14:30:48.494Z,-1.20
2019-01-11T14:33:22.698Z,-1.20
2019-01-11T14:35:52.856Z,-1.20
2019-01-11T14:38:24.045Z,-1.20
2019-01-11T14:40:56.250Z,-1.20
2019-01-11T14:43:27.289Z,-1.20
2019-01-11T14:45:58.652Z,-1.20
2019-01-11T14:48:29.063Z,-1.20
2019-01-11T14:50:59.148Z,-1.30
2019-01-11T14:53:31.251Z,-1.30
2019-01-11T14:56:02.868Z,-1.30
2019-01-11T14:58:32.956Z,-1.30
2019-01-11T15:01:03.197Z,-1.40
2019-01-11T15:03:33.257Z,-1.40
2019-01-11T15:06:03.524Z,-1.40
2019-01-11T15:08:34.636Z,-1.40
2019-01-11T15:11:04.818Z,-1.50
2019-01-11T15:13:34.905Z,-1.50
2019-01-11T15:16:05.005Z,-1.50
2019-01-11T15:18:43.228Z,-1.60
2019-01-11T15:21:15.287Z,-1.60
2019-01-11T15:23:46.296Z,-1.60
2019-01-11T15:26:16.397Z,-1.60
2019-01-11T15:28:47.233Z,-1.60
2019-01-11T15:31:21.333Z,-1.70
2019-01-11T15:33:51.424Z,-1.70
2019-01-11T15:36:21.513Z,-1.70
2019-01-11T15:38:51.740Z,-1.70
2019-01-11T15:41:23.824Z,-1.80
2019-01-11T15:43:53.977Z,-1.80
2019-01-11T15:46:24.902Z,-1.80
2019-01-11T15:48:56.617Z,-1.80
2019-01-11T15:51:27.729Z,-1.80
2019-01-11T15:53:57.841Z,-1.80
2019-01-11T15:56:28.871Z,-1.90
2019-01-11T15:59:00.644Z,-1.90
2019-01-11T16:01:30.924Z,-1.90
2019-01-11T16:04:05.989Z,-1.90
2019-01-11T16:06:38.056Z,-1.90
2019-01-11T16:09:21.377Z,-1.90
2019-01-11T16:12:04.841Z,-2.00
2019-01-11T16:14:51.431Z,-2.00
2019-01-11T16:17:30.184Z,-1.90
2019-01-11T16:20:00.477Z,-2.00
2019-01-11T16:22:31.661Z,-2.00
2019-01-11T16:25:02.292Z,-2.00
2019-01-11T16:27:33.364Z,-2.00
2019-01-11T16:30:05.170Z,-2.00
2019-01-11T16:32:37.392Z,-2.00
2019-01-11T16:35:10.724Z,-2.10
2019-01-11T16:37:46.649Z,-2.10
2019-01-11T16:40:16.737Z,-2.10
2019-01-11T16:42:46.957Z,-2.10
2019-01-11T16:45:17.508Z,-2.10
2019-01-11T16:47:51.722Z,-2.10
2019-01-11T16:50:22.001Z,-2.00
2019-01-11T16:52:59.025Z,-2.00
2019-01-11T16:55:29.152Z,-2.00
2019-01-11T16:58:01.201Z,-2.00
2019-01-11T17:00:31.297Z,-2.00
2019-01-11T17:03:01.391Z,-2.00
2019-01-11T17:05:34.594Z,-2.00
2019-01-11T17:08:05.759Z,-2.00
2019-01-11T17:10:37.768Z,-2.00
2019-01-11T17:13:07.904Z,-2.00
2019-01-11T17:15:38.090Z,-2.00
2019-01-11T17:18:08.141Z,-2.00
2019-01-11T17:20:38.241Z,-2.00
2019-01-11T17:23:10.302Z,-2.00
2019-01-11T17:25:46.469Z,-2.00
2019-01-11T17:28:16.561Z,-2.00
2019-01-11T17:30:47.613Z,-2.00
2019-01-11T17:33:17.702Z,-2.00
2019-01-11T17:35:47.870Z,-2.00
2019-01-11T17:38:22.717Z,-2.00
2019-01-11T17:40:52.937Z,-2.00
2019-01-11T17:43:24.185Z,-2.00
2019-01-11T17:45:54.270Z,-2.00
2019-01-11T17:48:24.369Z,-2.00
2019-01-11T17:50:54.477Z,-2.00
2019-01-11T17:53:24.709Z,-2.00
2019-01-11T17:55:54.846Z,-2.00
2019-01-11T17:58:26.893Z,-2.00
2019-01-11T18:00:57.937Z,-1.90
2019-01-11T18:03:28.989Z,-1.90
2019-01-11T18:06:01.045Z,-1.90
2019-01-11T18:08:31.135Z,-1.80
2019-01-11T18:11:03.233Z,-1.70
2019-01-11T18:13:33.325Z,-1.70
2019-01-11T18:16:03.427Z,-1.60
2019-01-11T18:18:33.509Z,-1.60
2019-01-11T18:21:03.706Z,-1.60
2019-01-11T18:23:35.801Z,-1.70
2019-01-11T18:26:05.885Z,-1.70
2019-01-11T18:28:36.961Z,-1.70
2019-01-11T18:31:07.053Z,-1.70
2019-01-11T18:33:37.157Z,-1.70
2019-01-11T18:36:07.253Z,-1.70
2019-01-11T18:38:37.341Z,-1.70
2019-01-11T18:41:07.451Z,-1.70
2019-01-11T18:43:37.553Z,-1.70
2019-01-11T18:46:07.669Z,-1.70
2019-01-11T18:48:39.725Z,-1.70
2019-01-11T18:51:12.489Z,-1.80
2019-01-11T18:53:42.585Z,-1.80
2019-01-11T18:56:13.801Z,-1.80
2019-01-11T18:58:43.901Z,-1.80
2019-01-11T19:01:14.938Z,-1.80
2019-01-11T19:03:47.673Z,-1.70
2019-01-11T19:06:18.041Z,-1.70
2019-01-11T19:08:48.093Z,-1.70
2019-01-11T19:11:18.181Z,-1.60
2019-01-11T19:13:48.285Z,-1.60
2019-01-11T19:16:18.389Z,-1.70
2019-01-11T19:18:50.558Z,-1.70
2019-01-11T19:21:20.649Z,-1.70
2019-01-11T19:23:50.761Z,-1.60
2019-01-11T19:26:20.849Z,-1.60
2019-01-11T19:28:50.991Z,-1.60
2019-01-11T19:31:22.233Z,-1.60
2019-01-11T19:33:52.322Z,-1.60
2019-01-11T19:36:22.421Z,-1.60
2019-01-11T19:38:52.538Z,-1.60
2019-01-11T19:41:25.649Z,-1.60
2019-01-11T19:43:55.753Z,-1.60
2019-01-11T19:46:25.911Z,-1.50
2019-01-11T19:48:55.949Z,-1.50
2019-01-11T19:51:26.115Z,-1.40
2019-01-11T19:53:56.277Z,-1.30
2019-01-11T19:56:26.386Z,-1.30
2019-01-11T19:58:56.641Z,-1.20
2019-01-11T20:01:26.864Z,-1.10
2019-01-11T20:04:00.120Z,-1.00
2019-01-11T20:06:30.283Z,-0.80
2019-01-11T20:09:00.603Z,-0.80
2019-01-11T20:11:30.773Z,-0.80
2019-01-11T20:14:01.004Z,-0.80
2019-01-11T20:16:31.110Z,-0.80
2019-01-11T20:19:05.661Z,-0.80
2019-01-11T20:21:36.843Z,-0.90
2019-01-11T20:24:06.930Z,-0.90
2019-01-11T20:26:37.113Z,-0.90
2019-01-11T20:29:07.281Z,-0.80
2019-01-11T20:31:43.687Z,-0.80
2019-01-11T20:34:16.519Z,-0.70
2019-01-11T20:36:53.225Z,-0.80
2019-01-11T20:39:23.337Z,-0.80
2019-01-11T20:41:53.662Z,-0.80
2019-01-11T20:44:27.589Z,-0.80
2019-01-11T20:46:58.647Z,-0.90
2019-01-11T20:49:28.741Z,-0.90
2019-01-11T20:51:59.551Z,-0.90
2019-01-11T20:54:35.654Z,-0.90
2019-01-11T20:57:06.201Z,-0.90
2019-01-11T20:59:46.426Z,-0.90
2019-01-11T21:02:17.450Z,-0.90
2019-01-11T21:04:53.317Z,-0.90
2019-01-11T21:07:23.445Z,-0.90
2019-01-11T21:09:53.538Z,-1.00
2019-01-11T21:12:28.709Z,-1.00
2019-01-11T21:14:58.802Z,-1.00
2019-01-11T21:17:29.855Z,-1.00
2019-01-11T21:20:01.973Z,-1.00
2019-01-11T21:22:32.066Z,-0.90
2019-01-11T21:25:02.173Z,-1.00
2019-01-11T21:27:32.356Z,-0.90
2019-01-11T21:30:02.632Z,-0.90
2019-01-11T21:32:32.709Z,-0.90
2019-01-11T21:35:04.769Z,-0.90
2019-01-11T21:37:37.462Z,-0.90
2019-01-11T21:40:13.366Z,-0.90
2019-01-11T21:42:44.417Z,-0.90
2019-01-11T21:45:23.631Z,-0.90
2019-01-11T21:47:53.758Z,-0.90
2019-01-11T21:50:25.059Z,-0.80
2019-01-11T21:52:55.177Z,-0.80
2019-01-11T21:55:25.342Z,-0.80
2019-01-11T21:57:55.575Z,-0.80
2019-01-11T22:00:35.214Z,-0.80
2019-01-11T22:03:08.530Z,-0.80
2019-01-11T22:05:42.937Z,-0.80
2019-01-11T22:08:14.067Z,-0.80
2019-01-11T22:10:48.826Z,-0.80
2019-01-11T22:13:19.869Z,-0.70
2019-01-11T22:15:50.966Z,-0.70
2019-01-11T22:18:27.069Z,-0.80
2019-01-11T22:20:58.045Z,-0.70
2019-01-11T22:23:30.078Z,-0.70
2019-01-11T22:26:01.073Z,-0.70
2019-01-11T22:28:32.217Z,-0.70
2019-01-11T22:31:02.390Z,-0.70
2019-01-11T22:33:33.358Z,-0.70
2019-01-11T22:36:08.650Z,-0.70
2019-01-11T22:38:38.835Z,-0.60
2019-01-11T22:41:08.918Z,-0.60
2019-01-11T22:43:39.011Z,-0.60
2019-01-11T22:46:10.050Z,-0.60
2019-01-11T22:48:43.648Z,-0.60
2019-01-11T22:51:14.870Z,-0.60
2019-01-11T22:53:44.968Z,-0.60
2019-01-11T22:56:16.117Z,-0.60
2019-01-11T22:58:48.550Z,-0.60
2019-01-11T23:01:26.087Z,-0.60
2019-01-11T23:03:56.178Z,-0.50
2019-01-11T23:06:33.654Z,-0.50
2019-01-11T23:09:05.281Z,-0.60
2019-01-11T23:12:29.870Z,-0.50
2019-01-11T23:15:09.554Z,-0.50
2019-01-11T23:17:48.178Z,-0.50
2019-01-11T23:20:18.319Z,-0.50
2019-01-11T23:22:50.318Z,-0.50
2019-01-11T23:25:22.318Z,-0.50
2019-01-11T23:27:52.626Z,-0.40
2019-01-11T23:30:23.698Z,-0.30
2019-01-11T23:32:53.930Z,-0.30
2019-01-11T23:35:24.086Z,-0.30
2019-01-11T23:37:55.118Z,-0.20
2019-01-11T23:40:27.222Z,-0.20
2019-01-11T23:42:58.250Z,-0.20
2019-01-11T23:45:28.358Z,-0.10
2019-01-11T23:47:58.555Z,-0.10
2019-01-11T23:50:28.642Z,-0.10
2019-01-11T23:52:59.317Z,-0.10
2019-01-11T23:55:35.486Z,-0.10
2019-01-11T23:58:06.509Z,-0.10
